Airfield :
LOGIN :

Register | Disclaimer

   EN    FR    IT 

 










Legend :    VFR   Marginal VFR   IFR   Intensive IFR   Very Intensive IFR
Visi :
Ceiling :
>= 8 km
>= 3000ft
5 to 8 km
1000 to 3000 ft
1500m to 5 km
500 to 1000 ft
800 to 1500m
200 to 500 ft
< 800m
< 200 ft
Symbols :   Thunderstorms  Fog  Heavy snow  Heavy precipitations  Wind > 20 kt
SIGMETs :     Misc.  Thunderstorms  Icing  Turbulence  Mountain Waves  Volcanic Ashes






- Airport Elevation : 13 ft
- IATA code : CEQ


LFMD - Cannes Mandelieu

CURRENT METAR :
  • 070930Z AUTO 28012G22KT 240V310 CAVOK 24/10 Q1010 NOSIG

EXPIRED METARs :
  • 070900Z AUTO 28009KT 230V320 CAVOK 23/10 Q1010 TEMPO 25020G30KT
  • 070830Z AUTO 26010KT 210V340 CAVOK 23/11 Q1010 TEMPO 25020G30KT
  • 070800Z AUTO 25010KT 220V280 CAVOK 22/11 Q1010 TEMPO 25020G30KT
  • 070730Z AUTO 26008KT 220V310 CAVOK 21/11 Q1010 TEMPO 25020G30KT
  • 070700Z AUTO 26011KT 220V290 CAVOK 19/12 Q1010 TEMPO 25020G30KT

TAF TAF LFMD
Valid from the 07 at 09:00 until the 08 at 09:00 UTC


070800Z 0709/0809 25015KT CAVOK
TEMPO 0709/0716 25020G30KT
PROB40
TEMPO 0717/0720 04012KT
BECMG 0719/0721 VRB05KT
BECMG 0806/0808 09010KT
ATIS : +33 4 93 48 73 23



MET'MAP, your aeronautical weather chart ! - Copyright ORBIFLY December 2007 - Disclaimer

ORBIFLY MET'MAP TEAM :

Programming & Development : Alexandra Zaïnal
Concept & original design : Baudouin d'Aumeries
Assistance for programming : Marc-Olivier Méhu
Technical & hardware support : Manuel Goepfert

Contact : metmap@orbifly.com




SOURCES & CREDITS :

   NOAA